createdAt,value
2023-01-26T00:01:25.804Z,17.90
2023-01-26T00:03:53.482Z,18.02
2023-01-26T00:06:22.076Z,17.81
2023-01-26T00:08:54.207Z,17.92
2023-01-26T00:11:23.389Z,17.99
2023-01-26T00:13:51.255Z,18.40
2023-01-26T00:16:18.101Z,18.69
2023-01-26T00:18:44.862Z,18.69
2023-01-26T00:21:17.736Z,19.20
2023-01-26T00:23:45.079Z,18.27
2023-01-26T00:26:16.058Z,18.74
2023-01-26T00:28:42.817Z,19.08
2023-01-26T00:31:28.639Z,18.91
2023-01-26T00:33:57.022Z,19.11
2023-01-26T00:36:24.687Z,19.95
2023-01-26T00:38:51.320Z,20.02
2023-01-26T00:41:19.163Z,20.26
2023-01-26T00:43:45.804Z,20.00
2023-01-26T00:46:12.490Z,19.64
2023-01-26T00:48:39.152Z,19.51
2023-01-26T00:51:05.796Z,20.09
2023-01-26T00:53:32.415Z,19.78
2023-01-26T00:55:59.032Z,19.31
2023-01-26T00:58:25.734Z,20.07
2023-01-26T01:00:53.865Z,19.62
2023-01-26T01:03:20.512Z,19.56
2023-01-26T01:05:47.188Z,19.32
2023-01-26T01:08:13.831Z,19.04
2023-01-26T01:10:40.509Z,18.56
2023-01-26T01:13:07.328Z,18.09
2023-01-26T01:15:33.933Z,18.60
2023-01-26T01:18:00.561Z,18.13
2023-01-26T01:20:27.214Z,17.95
2023-01-26T01:22:53.865Z,17.41
2023-01-26T01:25:20.490Z,17.89
2023-01-26T01:27:47.142Z,17.52
2023-01-26T01:30:15.003Z,18.02
2023-01-26T01:32:41.734Z,17.30
2023-01-26T01:35:09.735Z,17.31
2023-01-26T01:37:36.375Z,18.05
2023-01-26T01:40:03.068Z,18.06
2023-01-26T01:42:29.727Z,18.25
2023-01-26T01:45:35.223Z,17.53
2023-01-26T01:48:07.160Z,17.56
2023-01-26T01:50:39.052Z,17.68
2023-01-26T01:53:11.743Z,17.14
2023-01-26T01:55:38.851Z,17.43
2023-01-26T01:58:08.061Z,17.11
2023-01-26T02:00:34.811Z,16.84
2023-01-26T02:03:10.876Z,16.38
2023-01-26T02:05:50.917Z,16.11
2023-01-26T02:08:19.831Z,15.40
2023-01-26T02:10:50.747Z,15.34
2023-01-26T02:13:20.009Z,15.88
2023-01-26T02:15:47.102Z,15.52
2023-01-26T02:18:14.130Z,15.38
2023-01-26T02:20:46.955Z,14.91
2023-01-26T02:23:31.703Z,14.41
2023-01-26T02:26:14.222Z,14.48
2023-01-26T02:28:43.923Z,14.52
2023-01-26T02:31:12.548Z,14.84
2023-01-26T02:33:40.008Z,14.07
2023-01-26T02:36:08.008Z,14.02
2023-01-26T02:38:43.494Z,13.59
2023-01-26T02:41:16.487Z,13.86
2023-01-26T02:43:43.130Z,13.89
2023-01-26T02:46:09.855Z,13.81
2023-01-26T02:48:36.745Z,14.33
2023-01-26T02:51:04.343Z,14.51
2023-01-26T02:53:31.650Z,14.51
2023-01-26T02:55:58.278Z,14.40
2023-01-26T02:58:24.984Z,13.93
2023-01-26T03:00:51.672Z,13.09
2023-01-26T03:03:25.983Z,14.02
2023-01-26T03:05:52.944Z,14.22
2023-01-26T03:08:19.572Z,13.92
2023-01-26T03:10:46.217Z,13.12
2023-01-26T03:13:13.070Z,13.52
2023-01-26T03:15:39.735Z,14.11
2023-01-26T03:18:12.475Z,14.85
2023-01-26T03:20:39.519Z,14.47
2023-01-26T03:23:08.706Z,14.44
2023-01-26T03:25:36.888Z,14.24
2023-01-26T03:28:03.545Z,15.24
2023-01-26T03:30:30.195Z,14.40
2023-01-26T03:32:56.867Z,14.40
2023-01-26T03:35:23.513Z,15.14
2023-01-26T03:37:50.196Z,15.27
2023-01-26T03:40:16.800Z,15.80
2023-01-26T03:42:43.422Z,16.36
2023-01-26T03:45:10.460Z,15.50
2023-01-26T03:47:37.791Z,14.81
2023-01-26T03:50:04.600Z,14.84
2023-01-26T03:52:32.313Z,14.41
2023-01-26T03:54:58.951Z,14.66
2023-01-26T03:57:25.593Z,15.31
2023-01-26T03:59:52.267Z,16.42
2023-01-26T04:02:18.922Z,16.50
2023-01-26T04:04:45.607Z,17.05
2023-01-26T04:07:12.266Z,16.89
2023-01-26T04:09:38.909Z,16.49
2023-01-26T04:12:06.956Z,17.35
2023-01-26T04:14:49.803Z,17.29
2023-01-26T04:17:18.772Z,17.27
2023-01-26T04:19:45.583Z,17.32
2023-01-26T04:22:12.198Z,17.51
2023-01-26T04:24:38.851Z,17.37
2023-01-26T04:27:05.523Z,17.63
2023-01-26T04:29:32.163Z,17.33
2023-01-26T04:31:58.836Z,17.48
2023-01-26T04:34:25.463Z,16.92
2023-01-26T04:36:52.276Z,17.13
2023-01-26T04:39:19.067Z,16.53
2023-01-26T04:41:45.690Z,16.52
2023-01-26T04:44:12.348Z,16.46
2023-01-26T04:46:38.984Z,16.28
2023-01-26T04:49:05.745Z,16.54
2023-01-26T04:51:32.473Z,16.15
2023-01-26T04:53:59.108Z,16.00
2023-01-26T04:56:33.590Z,16.07
2023-01-26T04:59:03.351Z,15.64
2023-01-26T05:01:30.376Z,15.60
2023-01-26T05:04:02.209Z,15.89
2023-01-26T05:06:29.443Z,16.09
2023-01-26T05:08:58.416Z,15.87
2023-01-26T05:11:25.592Z,15.49
2023-01-26T05:13:52.201Z,15.90
2023-01-26T05:16:19.358Z,15.55
2023-01-26T05:18:45.984Z,16.14
2023-01-26T05:21:12.713Z,15.50
2023-01-26T05:23:39.385Z,15.89
2023-01-26T05:26:06.079Z,16.01
2023-01-26T05:28:36.470Z,16.16
2023-01-26T05:31:03.454Z,15.92
2023-01-26T05:33:30.276Z,15.77
2023-01-26T05:35:56.980Z,16.47
2023-01-26T05:38:23.582Z,16.58
2023-01-26T05:40:50.255Z,16.22
2023-01-26T05:43:16.845Z,17.02
2023-01-26T05:45:44.165Z,16.32
2023-01-26T05:48:10.814Z,16.00
2023-01-26T05:50:37.599Z,15.88
2023-01-26T05:53:04.217Z,15.98
2023-01-26T05:55:30.807Z,16.12
2023-01-26T05:57:57.416Z,15.26
2023-01-26T06:00:24.499Z,15.08
2023-01-26T06:02:51.498Z,14.64
2023-01-26T06:05:18.171Z,14.53
2023-01-26T06:07:44.818Z,14.43
2023-01-26T06:10:11.944Z,13.85
2023-01-26T06:12:39.517Z,13.64
2023-01-26T06:15:06.912Z,13.64
2023-01-26T06:17:33.579Z,13.66
2023-01-26T06:20:00.312Z,13.47
2023-01-26T06:22:26.939Z,13.23
2023-01-26T06:24:54.160Z,13.07
2023-01-26T06:27:20.945Z,12.96
2023-01-26T06:29:47.649Z,13.16
2023-01-26T06:32:15.142Z,13.12
2023-01-26T06:34:41.775Z,13.56
2023-01-26T06:37:10.618Z,13.50
2023-01-26T06:39:37.387Z,13.28
2023-01-26T06:42:04.512Z,13.33
2023-01-26T06:44:31.145Z,13.20
2023-01-26T06:46:57.810Z,14.13
2023-01-26T06:49:24.575Z,13.96
2023-01-26T06:52:04.024Z,13.87
2023-01-26T06:54:30.726Z,13.93
2023-01-26T06:56:57.418Z,14.31
2023-01-26T06:59:24.112Z,14.07
2023-01-26T07:01:50.744Z,14.48
2023-01-26T07:04:18.539Z,14.31
2023-01-26T07:06:45.331Z,14.13
2023-01-26T07:09:12.180Z,14.37
2023-01-26T07:11:38.896Z,14.50
2023-01-26T07:14:05.533Z,14.55
2023-01-26T07:16:33.882Z,14.49
2023-01-26T07:19:01.129Z,14.76
2023-01-26T07:21:27.936Z,14.87
2023-01-26T07:23:55.647Z,15.28
2023-01-26T07:26:22.287Z,14.73
2023-01-26T07:28:48.954Z,15.16
2023-01-26T07:31:15.800Z,14.78
2023-01-26T07:33:42.503Z,15.15
2023-01-26T07:36:10.583Z,15.22
2023-01-26T07:38:40.209Z,15.50
2023-01-26T07:41:11.159Z,15.33
2023-01-26T07:43:38.640Z,15.86
2023-01-26T07:46:07.315Z,15.88
2023-01-26T07:48:34.029Z,15.76
2023-01-26T07:51:03.690Z,16.29
2023-01-26T07:53:31.476Z,16.08
2023-01-26T07:56:09.260Z,15.90
2023-01-26T07:58:36.019Z,16.13
2023-01-26T08:01:14.050Z,16.40
2023-01-26T08:03:42.154Z,16.70
2023-01-26T08:06:11.763Z,16.07
2023-01-26T08:08:39.475Z,16.14
2023-01-26T08:11:06.209Z,16.19
2023-01-26T08:13:35.892Z,16.12
2023-01-26T08:16:09.246Z,16.16
2023-01-26T08:18:36.120Z,16.16
2023-01-26T08:21:02.786Z,16.09
2023-01-26T08:23:29.735Z,16.40
2023-01-26T08:26:02.203Z,15.67
2023-01-26T08:28:29.476Z,15.60
2023-01-26T08:30:56.116Z,16.02
2023-01-26T08:33:24.318Z,16.01
2023-01-26T08:35:50.958Z,16.20
2023-01-26T08:38:17.654Z,16.09
2023-01-26T08:40:44.319Z,16.02
2023-01-26T08:43:10.969Z,16.12
2023-01-26T08:45:37.714Z,16.40
2023-01-26T08:48:04.663Z,16.67
2023-01-26T08:50:31.393Z,16.31
2023-01-26T08:52:58.118Z,16.20
2023-01-26T08:55:24.760Z,15.95
2023-01-26T08:57:54.659Z,16.23
2023-01-26T09:00:23.157Z,16.02
2023-01-26T09:02:50.373Z,16.29
2023-01-26T09:05:18.113Z,16.59
2023-01-26T09:07:44.794Z,15.93
2023-01-26T09:10:11.842Z,16.52
2023-01-26T09:12:40.950Z,16.92
2023-01-26T09:15:09.023Z,16.79
2023-01-26T09:17:36.082Z,17.43
2023-01-26T09:20:04.948Z,16.24
2023-01-26T09:22:31.667Z,16.09
2023-01-26T09:24:58.384Z,16.84
2023-01-26T09:27:25.219Z,16.61
2023-01-26T09:29:52.022Z,19.40
2023-01-26T09:32:18.669Z,17.23
2023-01-26T09:34:46.077Z,17.06
2023-01-26T09:37:12.877Z,16.85
2023-01-26T09:39:39.527Z,17.05
2023-01-26T09:42:15.268Z,17.52
2023-01-26T09:44:52.298Z,17.27
2023-01-26T09:47:38.600Z,17.41
2023-01-26T09:50:19.192Z,17.60
2023-01-26T09:52:56.977Z,17.79
2023-01-26T09:55:25.038Z,17.07
2023-01-26T09:58:05.041Z,17.82
2023-01-26T10:00:48.420Z,18.63
2023-01-26T10:03:36.850Z,17.72
2023-01-26T10:06:24.738Z,18.84
2023-01-26T10:08:51.555Z,18.31
2023-01-26T10:11:31.709Z,18.23
2023-01-26T10:14:15.240Z,18.39
2023-01-26T10:16:49.004Z,18.00
2023-01-26T10:19:42.274Z,18.17
2023-01-26T10:22:22.538Z,18.35
2023-01-26T10:24:51.470Z,19.14
2023-01-26T10:27:18.081Z,18.30
2023-01-26T10:29:44.720Z,18.43
2023-01-26T10:32:14.894Z,18.51
2023-01-26T10:34:41.697Z,18.28
2023-01-26T10:37:17.339Z,18.44
2023-01-26T10:40:16.651Z,18.86
2023-01-26T10:42:58.516Z,18.60
2023-01-26T10:45:31.367Z,18.45
2023-01-26T10:48:16.306Z,19.05
2023-01-26T10:50:43.453Z,18.04
2023-01-26T10:53:27.269Z,17.86
2023-01-26T10:56:06.003Z,18.10
2023-01-26T10:58:41.379Z,17.87
2023-01-26T11:01:09.903Z,18.06
2023-01-26T11:03:36.527Z,18.56
2023-01-26T11:06:08.523Z,18.08
2023-01-26T11:08:37.879Z,17.53
2023-01-26T11:11:05.925Z,16.49
2023-01-26T11:13:32.598Z,17.42
2023-01-26T11:16:24.155Z,16.98
2023-01-26T11:19:11.780Z,16.95
2023-01-26T11:21:50.258Z,16.88
2023-01-26T11:24:31.788Z,16.99
2023-01-26T11:27:29.468Z,17.36
2023-01-26T11:30:11.900Z,16.86
2023-01-26T11:32:58.390Z,16.62
2023-01-26T11:36:16.210Z,16.03
2023-01-26T11:38:57.915Z,16.07
2023-01-26T11:41:24.504Z,16.03
2023-01-26T11:44:15.685Z,15.65
2023-01-26T11:46:51.153Z,15.97
2023-01-26T11:49:45.059Z,15.88
2023-01-26T11:52:21.441Z,15.58
2023-01-26T11:55:01.305Z,15.32
2023-01-26T11:58:08.349Z,15.22
2023-01-26T12:00:40.369Z,14.95
2023-01-26T12:03:21.317Z,14.18
2023-01-26T12:05:55.206Z,14.22
2023-01-26T12:08:31.467Z,14.72
2023-01-26T12:11:10.946Z,14.78
2023-01-26T12:13:44.875Z,14.84
2023-01-26T12:16:31.260Z,14.87
2023-01-26T12:19:11.351Z,15.30
2023-01-26T12:21:44.430Z,14.71
2023-01-26T12:24:54.028Z,14.44
2023-01-26T12:27:36.053Z,14.76
2023-01-26T12:30:17.573Z,14.78
2023-01-26T12:32:44.234Z,14.35
2023-01-26T12:35:13.618Z,14.67
2023-01-26T12:38:17.326Z,14.66
2023-01-26T12:41:03.431Z,14.72
2023-01-26T12:44:01.432Z,15.81
2023-01-26T12:46:35.284Z,16.23
2023-01-26T12:49:26.425Z,14.75
2023-01-26T12:52:06.363Z,15.48
2023-01-26T12:55:03.864Z,15.76
2023-01-26T12:57:44.198Z,14.91
2023-01-26T13:00:22.242Z,15.40
2023-01-26T13:02:55.383Z,15.96
2023-01-26T13:05:29.117Z,15.25
2023-01-26T13:07:55.851Z,15.11
2023-01-26T13:10:40.626Z,14.93
2023-01-26T13:13:19.236Z,14.58
2023-01-26T13:15:45.976Z,15.16
2023-01-26T13:18:17.824Z,14.92
2023-01-26T13:20:46.987Z,14.65
2023-01-26T13:23:28.728Z,14.91
2023-01-26T13:26:24.446Z,15.11
2023-01-26T13:28:52.060Z,14.84
2023-01-26T13:31:34.032Z,14.98
2023-01-26T13:34:07.996Z,14.83
2023-01-26T13:36:39.644Z,15.27
2023-01-26T13:39:21.464Z,15.17
2023-01-26T13:41:48.416Z,14.51
2023-01-26T13:44:39.789Z,15.31
2023-01-26T13:47:15.365Z,14.89
2023-01-26T13:49:43.616Z,14.24
2023-01-26T13:52:24.120Z,14.17
2023-01-26T13:54:53.190Z,14.53
2023-01-26T13:57:27.231Z,15.14
2023-01-26T13:59:59.667Z,15.01
2023-01-26T14:02:32.281Z,14.43
2023-01-26T14:05:01.314Z,13.84
2023-01-26T14:07:34.807Z,14.28
2023-01-26T14:10:02.667Z,14.53
2023-01-26T14:12:43.506Z,14.22
2023-01-26T14:15:39.573Z,14.59
2023-01-26T14:18:06.281Z,14.95
2023-01-26T14:20:42.538Z,16.42
2023-01-26T14:23:13.385Z,16.09
2023-01-26T14:25:56.034Z,16.36
2023-01-26T14:28:27.963Z,16.25
2023-01-26T14:31:02.437Z,16.86
2023-01-26T14:33:29.811Z,16.74
2023-01-26T14:36:03.025Z,16.96
2023-01-26T14:38:39.232Z,17.39
2023-01-26T14:41:22.169Z,16.97
2023-01-26T14:43:57.109Z,16.76
2023-01-26T14:46:51.951Z,16.93
2023-01-26T14:49:41.435Z,16.14
2023-01-26T14:52:19.790Z,15.64
2023-01-26T14:54:50.461Z,15.95
2023-01-26T14:57:22.151Z,15.57
2023-01-26T14:59:55.797Z,16.04
2023-01-26T15:02:43.698Z,15.95
2023-01-26T15:05:17.310Z,15.89
2023-01-26T15:07:48.877Z,15.92
2023-01-26T15:10:32.108Z,15.91
2023-01-26T15:13:15.346Z,16.28
2023-01-26T15:15:44.838Z,16.22
2023-01-26T15:18:14.433Z,16.11
2023-01-26T15:20:45.276Z,16.36
2023-01-26T15:23:24.168Z,16.25
2023-01-26T15:25:53.485Z,17.00
2023-01-26T15:28:24.835Z,16.73
2023-01-26T15:30:56.372Z,16.64
2023-01-26T15:33:39.623Z,17.10
2023-01-26T15:36:20.197Z,29.54
2023-01-26T15:38:47.337Z,16.94
2023-01-26T15:41:15.347Z,17.52
2023-01-26T15:43:42.082Z,16.56
2023-01-26T15:46:10.329Z,17.26
2023-01-26T15:48:37.030Z,16.61
2023-01-26T15:51:05.971Z,16.59
2023-01-26T15:53:32.713Z,16.98
2023-01-26T15:55:59.408Z,16.29
2023-01-26T15:58:26.051Z,16.74
2023-01-26T16:00:52.835Z,16.63
2023-01-26T16:03:22.326Z,16.51
2023-01-26T16:05:49.656Z,17.18
2023-01-26T16:08:17.862Z,17.49
2023-01-26T16:10:45.204Z,17.10
2023-01-26T16:13:15.012Z,16.75
2023-01-26T16:15:46.840Z,16.77
2023-01-26T16:18:15.323Z,16.43
2023-01-26T16:20:45.562Z,17.49
2023-01-26T16:23:26.990Z,16.87
2023-01-26T16:25:54.089Z,17.82
2023-01-26T16:28:22.004Z,18.03
2023-01-26T16:30:50.143Z,17.73
2023-01-26T16:33:19.903Z,22.21
2023-01-26T16:35:47.321Z,20.49
2023-01-26T16:38:13.950Z,23.20
2023-01-26T16:40:43.653Z,23.77
2023-01-26T16:43:23.989Z,23.87
2023-01-26T16:45:52.365Z,21.46
2023-01-26T16:48:20.177Z,17.83
2023-01-26T16:50:51.852Z,17.82
2023-01-26T16:53:31.890Z,18.79
2023-01-26T16:55:59.435Z,18.27
2023-01-26T16:58:26.749Z,18.33
2023-01-26T17:00:57.080Z,19.15
2023-01-26T17:03:24.433Z,18.50
2023-01-26T17:05:51.153Z,18.16
2023-01-26T17:08:17.792Z,18.88
2023-01-26T17:10:59.845Z,18.32
2023-01-26T17:13:28.065Z,19.25
2023-01-26T17:15:56.762Z,19.46
2023-01-26T17:18:24.093Z,18.91
2023-01-26T17:20:50.755Z,19.96
2023-01-26T17:23:17.422Z,21.59
2023-01-26T17:25:44.075Z,22.95
2023-01-26T17:28:10.729Z,21.68
2023-01-26T17:30:37.422Z,20.15
2023-01-26T17:33:04.186Z,19.86
2023-01-26T17:35:30.821Z,21.54
2023-01-26T17:37:57.463Z,20.12
2023-01-26T17:40:24.114Z,20.58
2023-01-26T17:42:50.815Z,21.25
2023-01-26T17:45:17.540Z,23.03
2023-01-26T17:47:44.937Z,20.29
2023-01-26T17:50:11.581Z,19.34
2023-01-26T17:52:41.002Z,22.31
2023-01-26T17:55:07.817Z,23.11
2023-01-26T17:57:34.893Z,20.35
2023-01-26T18:00:01.721Z,24.58
2023-01-26T18:02:29.764Z,23.65
2023-01-26T18:04:56.593Z,21.47
2023-01-26T18:07:24.357Z,21.64
2023-01-26T18:09:51.072Z,20.10
2023-01-26T18:12:17.759Z,21.51
2023-01-26T18:14:44.397Z,22.04
2023-01-26T18:17:11.037Z,26.88
2023-01-26T18:19:40.210Z,23.88
2023-01-26T18:22:06.911Z,24.70
2023-01-26T18:24:34.378Z,21.64
2023-01-26T18:27:01.379Z,24.91
2023-01-26T18:29:28.402Z,26.49
2023-01-26T18:31:55.342Z,24.15
2023-01-26T18:34:22.057Z,21.87
2023-01-26T18:36:48.753Z,22.01
2023-01-26T18:39:15.413Z,23.79
2023-01-26T18:41:42.572Z,20.85
2023-01-26T18:44:12.652Z,24.82
2023-01-26T18:46:39.513Z,22.35
2023-01-26T18:49:06.357Z,25.27
2023-01-26T18:51:35.716Z,23.73
2023-01-26T18:54:04.425Z,23.76
2023-01-26T18:56:32.426Z,28.05
2023-01-26T18:58:59.401Z,27.19
2023-01-26T19:01:27.463Z,24.59
2023-01-26T19:03:54.389Z,21.20
2023-01-26T19:06:22.872Z,24.56
2023-01-26T19:08:57.883Z,20.61
2023-01-26T19:11:29.791Z,31.12
2023-01-26T19:13:57.846Z,33.67
2023-01-26T19:16:25.189Z,24.85
2023-01-26T19:18:52.814Z,21.34
2023-01-26T19:21:19.745Z,24.42
2023-01-26T19:23:46.442Z,23.22
2023-01-26T19:26:18.681Z,24.28
2023-01-26T19:28:48.283Z,31.17
2023-01-26T19:31:17.634Z,25.54
2023-01-26T19:33:53.373Z,21.20
2023-01-26T19:36:21.056Z,21.43
2023-01-26T19:38:47.989Z,20.18
2023-01-26T19:41:22.263Z,19.22
2023-01-26T19:43:49.942Z,19.80
2023-01-26T19:46:17.498Z,20.88
2023-01-26T19:48:44.354Z,20.41
2023-01-26T19:51:17.396Z,20.26
2023-01-26T19:53:46.496Z,21.96
2023-01-26T19:56:24.087Z,20.77
2023-01-26T19:59:02.231Z,19.63
2023-01-26T20:01:31.002Z,20.40
2023-01-26T20:04:05.642Z,21.24
2023-01-26T20:06:34.890Z,22.22
2023-01-26T20:09:02.266Z,21.42
2023-01-26T20:11:29.454Z,19.89
2023-01-26T20:14:07.018Z,20.33
2023-01-26T20:16:34.530Z,19.89
2023-01-26T20:19:01.839Z,19.39
2023-01-26T20:21:30.137Z,22.51
2023-01-26T20:23:57.036Z,23.34
2023-01-26T20:26:25.883Z,27.16
2023-01-26T20:28:53.477Z,19.93
2023-01-26T20:31:24.041Z,20.16
2023-01-26T20:33:53.241Z,20.28
2023-01-26T20:36:25.997Z,19.34
2023-01-26T20:38:53.958Z,19.46
2023-01-26T20:41:26.495Z,19.20
2023-01-26T20:44:00.917Z,20.59
2023-01-26T20:46:37.075Z,22.14
2023-01-26T20:49:05.440Z,22.71
2023-01-26T20:51:34.391Z,20.53
2023-01-26T20:54:02.934Z,19.17
2023-01-26T20:56:29.819Z,18.69
2023-01-26T20:58:56.806Z,18.38
2023-01-26T21:01:24.556Z,18.28
2023-01-26T21:03:52.356Z,18.50
2023-01-26T21:06:21.099Z,18.39
2023-01-26T21:08:49.799Z,18.99
2023-01-26T21:11:17.402Z,18.44
2023-01-26T21:13:44.377Z,18.27
2023-01-26T21:16:14.880Z,17.99
2023-01-26T21:18:42.362Z,17.05
2023-01-26T21:21:12.353Z,17.51
2023-01-26T21:23:38.990Z,17.52
2023-01-26T21:26:12.863Z,18.14
2023-01-26T21:28:39.980Z,17.88
2023-01-26T21:31:12.621Z,17.75
2023-01-26T21:33:44.769Z,17.45
2023-01-26T21:36:13.966Z,16.97
2023-01-26T21:38:44.620Z,16.96
2023-01-26T21:41:16.762Z,16.77
2023-01-26T21:43:43.426Z,17.57
2023-01-26T21:46:10.141Z,16.69
2023-01-26T21:48:36.860Z,17.12
2023-01-26T21:51:03.879Z,17.16
2023-01-26T21:53:30.556Z,16.85
2023-01-26T21:55:57.162Z,16.60
2023-01-26T21:58:23.822Z,16.92
2023-01-26T22:00:50.516Z,17.27
2023-01-26T22:03:17.185Z,16.63
2023-01-26T22:05:54.363Z,15.64
2023-01-26T22:08:21.183Z,16.44
2023-01-26T22:10:55.906Z,15.75
2023-01-26T22:13:23.488Z,15.59
2023-01-26T22:15:50.518Z,15.08
2023-01-26T22:18:17.423Z,15.40
2023-01-26T22:20:44.694Z,16.09
2023-01-26T22:23:11.620Z,15.22
2023-01-26T22:25:39.170Z,15.55
2023-01-26T22:28:07.175Z,15.65
2023-01-26T22:30:34.650Z,15.50
2023-01-26T22:33:01.498Z,15.01
2023-01-26T22:35:29.989Z,15.37
2023-01-26T22:37:56.738Z,15.02
2023-01-26T22:40:23.468Z,14.41
2023-01-26T22:42:52.211Z,14.20
2023-01-26T22:45:18.987Z,14.18
2023-01-26T22:47:48.176Z,14.14
2023-01-26T22:50:16.351Z,14.32
2023-01-26T22:52:43.066Z,14.10
2023-01-26T22:55:09.776Z,14.30
2023-01-26T22:57:36.556Z,14.47
2023-01-26T23:00:04.791Z,14.74
2023-01-26T23:02:31.437Z,14.35
2023-01-26T23:04:58.159Z,14.43
2023-01-26T23:07:24.844Z,14.19
2023-01-26T23:09:51.497Z,14.36
2023-01-26T23:12:21.254Z,14.52
2023-01-26T23:14:47.887Z,14.45
2023-01-26T23:17:14.530Z,14.46
2023-01-26T23:19:41.213Z,14.19
2023-01-26T23:22:07.888Z,14.16
2023-01-26T23:24:34.575Z,13.61
2023-01-26T23:27:01.275Z,13.96
2023-01-26T23:29:27.994Z,13.72
2023-01-26T23:31:54.654Z,13.86
2023-01-26T23:34:21.333Z,13.44
2023-01-26T23:36:48.021Z,13.78
2023-01-26T23:39:14.713Z,13.65
2023-01-26T23:41:41.344Z,13.23
2023-01-26T23:44:07.999Z,13.51
2023-01-26T23:46:34.771Z,13.54
2023-01-26T23:49:01.475Z,13.73
2023-01-26T23:51:28.111Z,13.95
2023-01-26T23:53:54.741Z,13.65
2023-01-26T23:56:21.379Z,13.59
2023-01-26T23:58:48.033Z,13.19
